Tonopah, Nevada
Current Conditions -  °F | °C
As of 7:56 PM on Tuesday 21 Oct 2014 (Local Time) from KTPH Reporting Station
Clear Clear  
Wind Chill: 55°   Ceiling: Unl
Heat Index: 55°   Visibility: 10mi
Dew Point:   Wind: 13mph
Humidity: 14%   Direction: 300°WNW
Pressure: 30.04"   Gusts: NA
Location:  38.07°N, 117.23°W
Report Text: KTPH 220256Z AUTO 30011KT 10SM CLR 13/M14 A3004 RMK AO2 SLP141 T01281144 51010
Loading
Personal Weather Stations






























Interactive Weather Map
Tropical Storm Tracking
New forecast layout! Learn more

10-Day Weather Forecast

Advertisements
Track Severe Weather on mobile